Time;durP1;ratioP1;P1;durP2;ratioP2;P2;SDS_P1;SDS_P2;PMS_P1;PMS_P2;Temp;Humidity;BMP_temperature;BMP_pressure;BME280_temperature;BME280_humidity;BME280_pressure;Samples;Min_cycle;Max_cycle;Signal;HPM_P1;HPM_P2
2022/01/25 00:10:39;;;;;;;54.43;17.97;;;;;;;-2.01;93.79;95233.00;5007677;28;20100;-60
2022/01/25 00:24:44;;;;;;;71.07;19.00;;;;;;;-2.16;93.16;95230.63;4994966;28;20072;-60
2022/01/25 00:27:25;;;;;;;66.18;19.15;;;;;;;-2.28;93.77;95230.34;4987969;28;20407;-59
2022/01/25 00:29:59;;;;;;;51.45;17.55;;;;;;;-2.19;93.88;95233.13;4987576;28;20064;-58
2022/01/25 00:32:25;;;;;;;62.55;19.52;;;;;;;-2.05;93.39;95232.00;5004898;28;20054;-59
2022/01/25 00:34:52;;;;;;;63.05;18.40;;;;;;;-2.06;92.90;95230.41;5019505;28;20443;-59
2022/01/25 00:37:20;;;;;;;65.93;18.87;;;;;;;-2.24;93.29;95228.66;4988996;28;20064;-60
2022/01/25 00:39:47;;;;;;;59.60;17.58;;;;;;;-2.27;93.64;95226.56;4988385;28;20064;-58
2022/01/25 00:42:14;;;;;;;60.58;18.48;;;;;;;-2.20;93.17;95232.31;4988650;28;20047;-60
2022/01/25 00:44:46;;;;;;;59.47;18.58;;;;;;;-2.34;93.79;95231.56;4988806;28;20042;-59
2022/01/25 00:47:15;;;;;;;71.18;18.38;;;;;;;-2.31;93.94;95226.38;5021493;28;20430;-59
2022/01/25 00:49:44;;;;;;;76.67;21.70;;;;;;;-2.30;94.01;95225.25;5040021;28;20046;-60
2022/01/25 00:52:25;;;;;;;71.25;19.88;;;;;;;-2.18;93.85;95222.06;5007823;28;20045;-60
2022/01/25 00:54:53;;;;;;;62.05;18.20;;;;;;;-2.16;93.53;95222.56;5007410;28;20075;-59
2022/01/25 00:57:20;;;;;;;52.30;16.80;;;;;;;-2.07;93.25;95228.81;5007909;28;20046;-61
2022/01/25 00:59:47;;;;;;;55.22;16.30;;;;;;;-2.08;92.83;95226.44;5007939;28;20103;-57
2022/01/25 01:02:16;;;;;;;52.67;16.07;;;;;;;-2.19;93.01;95214.28;5022822;28;20061;-62
2022/01/25 01:04:47;;;;;;;49.72;15.68;;;;;;;-2.18;92.82;95222.06;5008112;28;20058;-60
2022/01/25 01:07:16;;;;;;;56.63;16.40;;;;;;;-2.23;92.70;95228.34;5008167;28;20115;-61
2022/01/25 01:09:46;;;;;;;56.40;15.93;;;;;;;-2.32;93.20;95229.34;5009969;28;20049;-64
2022/01/25 01:12:27;;;;;;;51.50;15.85;;;;;;;-2.23;93.23;95227.56;5010596;28;20803;-60
2022/01/25 01:31:25;;;;;;;46.05;14.30;;;;;;;-2.10;91.96;95234.00;5010054;28;21455;-61
2022/01/25 01:44:03;;;;;;;48.42;14.15;;;;;;;-2.38;93.38;95225.97;5010231;28;20549;-60
2022/01/25 01:46:40;;;;;;;70.32;18.77;;;;;;;-2.39;93.41;95229.78;5009721;28;20045;-61
2022/01/25 01:49:10;;;;;;;72.97;20.00;;;;;;;-2.56;93.61;95234.97;5009790;28;20481;-61
2022/01/25 01:51:42;;;;;;;64.85;15.88;;;;;;;-2.58;94.63;95237.94;5025623;28;20056;-60
2022/01/25 01:54:14;;;;;;;52.80;15.47;;;;;;;-2.49;94.35;95248.81;5010043;28;20050;-60
2022/01/25 01:56:44;;;;;;;61.17;16.10;;;;;;;-2.55;94.43;95242.72;5009399;28;20041;-60
2022/01/25 01:59:14;;;;;;;64.50;15.75;;;;;;;-2.46;94.07;95243.59;5010309;28;20048;-60
2022/01/25 02:01:44;;;;;;;78.13;18.88;;;;;;;-2.66;94.06;95241.31;5010695;28;20407;-59
2022/01/25 02:04:14;;;;;;;54.00;14.90;;;;;;;-2.65;94.81;95237.56;5008252;28;20057;-58
2022/01/25 02:06:41;;;;;;;67.03;16.57;;;;;;;-2.55;95.03;95239.25;5010784;28;20487;-61
2022/01/25 02:09:09;;;;;;;73.85;18.13;;;;;;;-2.57;94.49;95239.53;5010104;28;20137;-61
2022/01/25 02:11:37;;;;;;;50.05;15.88;;;;;;;-2.52;94.58;95242.13;5010487;28;20040;-59
2022/01/25 02:14:05;;;;;;;65.07;16.45;;;;;;;-2.60;94.57;95234.75;5009726;28;20497;-59
2022/01/25 02:24:32;;;;;;;46.55;14.57;;;;;;;-2.72;94.16;95227.19;5009430;28;20674;-60
2022/01/25 02:27:00;;;;;;;47.20;13.38;;;;;;;-2.72;94.93;95227.19;5009690;28;20042;-60
2022/01/25 02:29:26;;;;;;;52.10;14.43;;;;;;;-2.70;94.96;95221.53;5010051;28;20060;-60
2022/01/25 02:31:54;;;;;;;61.17;13.80;;;;;;;-2.74;94.61;95226.69;5008502;28;20057;-60
2022/01/25 02:34:22;;;;;;;47.75;12.15;;;;;;;-2.82;94.76;95227.38;5009817;28;20041;-61
2022/01/25 02:37:00;;;;;;;47.03;12.80;;;;;;;-2.93;95.68;95228.69;5009673;28;20095;-60
2022/01/25 02:39:27;;;;;;;46.58;12.82;;;;;;;-2.91;95.79;95224.59;5008434;28;20116;-61
2022/01/25 02:41:55;;;;;;;51.80;13.32;;;;;;;-3.09;96.30;95223.59;5009375;28;20045;-59
2022/01/25 02:44:27;;;;;;;48.40;12.83;;;;;;;-3.04;96.17;95212.78;5009640;28;20052;-59
2022/01/25 02:49:31;;;;;;;75.03;14.80;;;;;;;-2.92;96.73;95217.63;5009726;28;20052;-59
2022/01/25 02:52:02;;;;;;;66.53;15.95;;;;;;;-2.81;96.44;95210.19;5009496;28;20046;-60
2022/01/25 02:54:30;;;;;;;69.43;21.20;;;;;;;-2.57;96.09;95212.66;5009817;28;20038;-61
2022/01/25 02:56:57;;;;;;;49.60;15.00;;;;;;;-2.77;95.45;95208.50;5009159;28;20124;-61
2022/01/25 02:59:24;;;;;;;51.08;14.35;;;;;;;-2.79;95.67;95213.38;5008234;28;20046;-60
2022/01/25 03:01:50;;;;;;;52.50;14.98;;;;;;;-2.81;95.46;95212.88;5008020;28;20069;-60
2022/01/25 03:04:21;;;;;;;57.45;14.75;;;;;;;-2.79;95.50;95209.91;5009280;28;20490;-60
2022/01/25 03:06:48;;;;;;;66.88;14.98;;;;;;;-2.94;95.91;95208.28;5009294;28;20046;-60
2022/01/25 03:09:15;;;;;;;56.63;15.43;;;;;;;-3.05;96.52;95208.47;5009268;28;20073;-60
2022/01/25 03:11:45;;;;;;;83.68;16.42;;;;;;;-2.90;96.43;95212.75;5009567;28;20030;-61
2022/01/25 03:14:12;;;;;;;66.65;16.38;;;;;;;-2.97;96.40;95200.84;5008022;28;20598;-60
2022/01/25 03:17:08;;;;;;;72.75;17.67;;;;;;;-2.99;96.71;95209.19;5009144;28;20049;-62
2022/01/25 03:22:18;;;;;;;78.30;14.67;;;;;;;-2.99;96.49;95198.44;5005412;28;20438;-61
2022/01/25 03:24:46;;;;;;;62.63;16.42;;;;;;;-3.04;96.52;95195.84;5009625;28;20068;-60
2022/01/25 03:27:13;;;;;;;67.30;16.33;;;;;;;-2.98;96.68;95191.97;5022873;28;20739;-61
2022/01/25 03:29:39;;;;;;;70.30;16.10;;;;;;;-2.98;96.59;95197.34;5009109;28;20395;-60
2022/01/25 03:32:07;;;;;;;71.35;16.40;;;;;;;-2.91;96.58;95197.75;5023142;28;20037;-62
2022/01/25 03:34:34;;;;;;;65.67;15.97;;;;;;;-2.96;96.47;95194.34;5007597;28;20049;-60
2022/01/25 03:37:01;;;;;;;61.83;16.40;;;;;;;-3.05;96.16;95195.06;5007202;28;20058;-61
2022/01/25 03:39:28;;;;;;;47.00;13.80;;;;;;;-3.12;96.35;95201.91;5008635;28;20478;-61
2022/01/25 03:41:55;;;;;;;56.67;15.13;;;;;;;-3.01;96.32;95192.56;5006772;28;20054;-61
2022/01/25 03:44:22;;;;;;;72.10;14.75;;;;;;;-3.01;96.11;95192.56;5008623;28;20038;-61
2022/01/25 03:52:03;;;;;;;56.47;14.38;;;;;;;-2.83;95.84;95189.00;5008574;28;20037;-61
2022/01/25 03:54:30;;;;;;;57.55;15.38;;;;;;;-2.88;95.64;95193.66;5008416;28;20052;-61
2022/01/25 03:56:57;;;;;;;59.25;14.80;;;;;;;-2.99;95.65;95193.06;5023016;28;20171;-58
2022/01/25 03:59:24;;;;;;;55.50;15.07;;;;;;;-2.96;96.11;95192.47;5008647;28;20038;-59
2022/01/25 04:01:51;;;;;;;54.03;15.27;;;;;;;-2.97;95.61;95196.25;5008447;28;20041;-59
2022/01/25 04:04:22;;;;;;;49.78;15.07;;;;;;;-2.97;96.07;95198.94;5008329;28;20058;-59
2022/01/25 04:06:51;;;;;;;51.15;13.05;;;;;;;-3.07;95.34;95197.25;5008283;28;20056;-59
2022/01/25 04:09:19;;;;;;;60.38;14.32;;;;;;;-3.05;95.96;95197.72;5008348;28;20041;-60
2022/01/25 04:11:45;;;;;;;53.63;14.17;;;;;;;-3.16;95.58;95199.00;5008578;28;20048;-59
2022/01/25 04:14:13;;;;;;;48.20;12.98;;;;;;;-3.28;96.14;95201.38;5022360;28;21635;-59
2022/01/25 04:17:22;;;;;;;47.85;13.38;;;;;;;-3.32;96.44;95201.19;5008460;28;20049;-60
2022/01/25 04:19:36;;;;;;;48.45;13.57;;;;;;;-3.42;96.80;95206.72;4991950;28;20462;-61
2022/01/25 04:27:30;;;;;;;52.22;13.60;;;;;;;-3.53;97.67;95200.75;5007669;28;20704;-61
2022/01/25 04:29:58;;;;;;;51.72;13.25;;;;;;;-3.41;97.56;95200.28;5008181;28;20060;-62
2022/01/25 04:32:34;;;;;;;50.13;13.32;;;;;;;-3.35;96.86;95195.63;5008246;28;20045;-65
2022/01/25 04:35:25;;;;;;;51.50;14.75;;;;;;;-3.33;96.74;95201.47;5007623;28;20056;-60
2022/01/25 04:49:24;;;;;;;45.75;12.75;;;;;;;-3.22;96.25;95198.31;5011656;28;20041;-61
2022/01/25 04:51:56;;;;;;;47.53;14.00;;;;;;;-3.41;96.46;95195.69;5011879;28;20054;-61
2022/01/25 05:04:54;;;;;;;48.83;13.53;;;;;;;-3.37;96.88;95182.47;5011510;28;20049;-57
2022/01/25 05:07:38;;;;;;;52.08;14.07;;;;;;;-3.34;96.31;95178.41;5010505;28;20453;-61
2022/01/25 05:10:07;;;;;;;51.60;13.60;;;;;;;-3.48;96.18;95173.81;5011104;28;20827;-62
2022/01/25 05:18:19;;;;;;;51.03;14.40;;;;;;;-3.57;97.22;95180.94;5023486;28;20056;-62
2022/01/25 05:23:31;;;;;;;49.33;14.05;;;;;;;-3.42;97.11;95180.69;5022695;28;20500;-61
2022/01/25 05:25:58;;;;;;;58.00;16.75;;;;;;;-3.27;96.43;95179.63;5025737;28;20056;-61
2022/01/25 05:28:25;;;;;;;53.67;14.05;;;;;;;-3.30;96.01;95174.84;5010967;28;20053;-61
2022/01/25 05:30:51;;;;;;;51.47;14.40;;;;;;;-3.30;96.22;95180.22;5009514;28;20503;-60
2022/01/25 05:33:18;;;;;;;51.65;15.10;;;;;;;-3.31;95.78;95183.19;5010788;28;20052;-60
2022/01/25 05:35:45;;;;;;;53.65;14.32;;;;;;;-3.48;95.81;95181.88;5010933;28;20045;-59
2022/01/25 05:38:12;;;;;;;49.05;14.15;;;;;;;-3.34;96.34;95179.22;5025122;28;20681;-59
2022/01/25 05:40:48;;;;;;;54.83;15.07;;;;;;;-3.41;96.09;95171.53;5010483;28;20046;-59
2022/01/25 05:48:12;;;;;;;47.17;13.95;;;;;;;-3.64;97.07;95178.66;5009954;28;20046;-60
2022/01/25 05:50:38;;;;;;;55.30;15.07;;;;;;;-3.52;96.31;95177.38;5025676;28;20038;-59
2022/01/25 05:53:05;;;;;;;49.00;13.50;;;;;;;-3.53;96.43;95176.59;5008988;28;20053;-59
2022/01/25 05:55:32;;;;;;;50.77;14.40;;;;;;;-3.44;96.84;95174.81;4996807;28;20038;-59
2022/01/25 05:57:58;;;;;;;52.63;13.90;;;;;;;-3.37;96.02;95185.16;5006312;28;20468;-60
2022/01/25 06:00:25;;;;;;;52.55;14.25;;;;;;;-3.45;95.82;95188.53;5041743;28;20053;-61
2022/01/25 06:02:54;;;;;;;54.92;13.80;;;;;;;-3.60;95.85;95181.56;5025081;28;20415;-59
2022/01/25 06:05:23;;;;;;;51.20;13.95;;;;;;;-3.52;96.21;95188.09;5009993;28;20434;-59
2022/01/25 06:07:50;;;;;;;53.77;13.93;;;;;;;-3.46;96.35;95186.94;5010087;28;20045;-60
2022/01/25 06:10:17;;;;;;;55.30;14.48;;;;;;;-3.49;95.93;95182.16;5010079;28;20050;-59
2022/01/25 06:12:45;;;;;;;47.92;13.45;;;;;;;-3.50;95.48;95183.25;5025407;28;20046;-60
2022/01/25 06:15:12;;;;;;;46.78;14.50;;;;;;;-3.45;95.51;95181.28;5009691;28;20071;-60
2022/01/25 06:17:39;;;;;;;46.90;14.27;;;;;;;-3.59;95.32;95180.44;5009640;28;20034;-59
2022/01/25 06:20:07;;;;;;;44.73;13.87;;;;;;;-3.63;96.03;95182.13;5008545;28;20495;-60
2022/01/25 06:22:34;;;;;;;40.17;11.63;;;;;;;-3.67;95.54;95175.75;5010046;28;20046;-60
2022/01/25 06:25:01;;;;;;;46.25;14.20;;;;;;;-3.74;96.06;95180.69;5009361;28;20053;-61
2022/01/25 06:27:28;;;;;;;44.85;12.15;;;;;;;-3.75;95.88;95168.38;5009870;28;20038;-59
2022/01/25 06:29:54;;;;;;;44.83;12.68;;;;;;;-3.85;96.48;95172.81;5009286;28;20152;-59
2022/01/25 06:32:21;;;;;;;41.80;11.43;;;;;;;-3.92;96.11;95167.06;5008466;28;20049;-59
2022/01/25 06:34:48;;;;;;;45.28;12.77;;;;;;;-3.92;97.19;95171.63;5024516;28;20049;-59
2022/01/25 06:37:15;;;;;;;43.78;13.23;;;;;;;-3.87;96.48;95179.56;5009694;28;20038;-60
2022/01/25 06:39:42;;;;;;;41.60;11.60;;;;;;;-3.89;96.47;95173.69;5009619;28;20052;-60
2022/01/25 06:42:09;;;;;;;46.28;12.73;;;;;;;-3.81;96.66;95179.19;5009172;28;20045;-60
2022/01/25 06:44:37;;;;;;;42.60;11.90;;;;;;;-3.79;95.70;95181.59;5009356;28;20794;-61
2022/01/25 06:47:04;;;;;;;45.42;12.85;;;;;;;-3.85;95.97;95191.59;5009346;28;20046;-59
2022/01/25 06:49:31;;;;;;;44.90;12.85;;;;;;;-3.63;96.26;95190.19;5009075;28;20069;-59
2022/01/25 06:52:09;;;;;;;45.72;12.02;;;;;;;-3.68;96.01;95198.28;5009196;28;20041;-59
2022/01/25 06:54:37;;;;;;;47.40;12.90;;;;;;;-3.64;95.41;95194.75;5009286;28;20038;-60
2022/01/25 06:57:04;;;;;;;50.43;13.60;;;;;;;-3.61;94.92;95186.09;5009009;28;20050;-61
2022/01/25 06:59:31;;;;;;;47.45;13.82;;;;;;;-3.53;95.33;95194.59;5009191;28;20384;-59
2022/01/25 07:01:57;;;;;;;41.90;12.38;;;;;;;-3.54;94.94;95190.28;5009081;28;20064;-59
2022/01/25 07:04:24;;;;;;;41.03;12.15;;;;;;;-3.44;94.60;95200.84;5009156;28;20052;-60
2022/01/25 07:06:51;;;;;;;43.22;13.00;;;;;;;-3.54;94.16;95198.34;5008006;28;20061;-59
2022/01/25 07:09:17;;;;;;;42.63;12.70;;;;;;;-3.50;94.07;95199.34;4998437;28;20056;-65
2022/01/25 07:11:44;;;;;;;41.65;12.10;;;;;;;-3.62;93.44;95205.19;5009239;28;20046;-60
2022/01/25 07:14:12;;;;;;;43.97;13.32;;;;;;;-3.67;94.06;95208.75;5008574;28;20052;-60
2022/01/25 07:16:39;;;;;;;45.92;13.70;;;;;;;-3.63;94.15;95209.75;5007279;28;20050;-60
2022/01/25 07:19:05;;;;;;;45.35;13.32;;;;;;;-3.71;94.23;95210.41;5008616;28;20042;-60
2022/01/25 07:21:32;;;;;;;45.43;12.63;;;;;;;-3.72;94.65;95216.06;5008950;28;20091;-60
2022/01/25 07:23:59;;;;;;;41.92;12.60;;;;;;;-3.70;95.56;95221.94;5008602;28;20042;-60
2022/01/25 07:26:26;;;;;;;42.65;13.82;;;;;;;-3.69;96.02;95224.34;5008525;28;20049;-61
2022/01/25 07:28:52;;;;;;;42.28;12.48;;;;;;;-3.64;95.62;95234.22;5008543;28;20041;-60
2022/01/25 07:31:21;;;;;;;45.55;12.63;;;;;;;-3.50;95.34;95237.72;5008878;28;20048;-64
2022/01/25 07:33:48;;;;;;;44.67;12.17;;;;;;;-3.42;94.24;95234.38;5008803;28;20046;-60
2022/01/25 07:36:14;;;;;;;40.88;11.85;;;;;;;-3.33;94.13;95241.75;5008858;28;20053;-59
2022/01/25 07:38:43;;;;;;;41.85;12.45;;;;;;;-3.13;93.50;95232.53;5008576;28;20053;-61
2022/01/25 07:41:22;;;;;;;43.60;12.38;;;;;;;-3.11;92.94;95238.41;5007685;28;21618;-60
2022/01/25 07:43:51;;;;;;;37.45;12.32;;;;;;;-2.87;92.20;95236.34;5008379;28;20050;-62
2022/01/25 07:46:33;;;;;;;37.50;11.77;;;;;;;-2.61;91.07;95239.34;5021924;28;20064;-61
2022/01/25 07:49:06;;;;;;;41.88;12.82;;;;;;;-2.58;89.84;95231.78;5008456;28;20050;-61
2022/01/25 07:51:35;;;;;;;36.63;11.32;;;;;;;-2.51;89.23;95235.66;5008366;28;20046;-61
2022/01/25 07:54:02;;;;;;;37.97;11.82;;;;;;;-2.76;89.36;95233.47;5008082;28;20062;-60
2022/01/25 07:56:29;;;;;;;33.15;11.73;;;;;;;-2.81;89.39;95235.16;5008012;28;20041;-61
2022/01/25 07:58:56;;;;;;;37.73;11.97;;;;;;;-2.84;89.78;95243.00;5008164;28;20054;-61
2022/01/25 08:01:24;;;;;;;38.20;12.23;;;;;;;-2.78;89.98;95238.34;5008580;28;20072;-60
2022/01/25 08:03:51;;;;;;;34.92;11.60;;;;;;;-2.71;89.76;95241.44;4990166;28;20077;-60
2022/01/25 08:06:36;;;;;;;39.30;12.27;;;;;;;-2.71;89.62;95241.44;4996409;28;20046;-61
2022/01/25 08:09:05;;;;;;;38.35;12.02;;;;;;;-2.61;89.44;95244.72;5007644;28;20053;-60
2022/01/25 08:11:49;;;;;;;40.63;12.03;;;;;;;-2.58;88.89;95235.25;4994235;28;20445;-60
2022/01/25 08:14:33;;;;;;;39.72;12.88;;;;;;;-2.54;89.10;95238.94;5008360;28;20426;-60
2022/01/25 08:17:11;;;;;;;39.00;12.90;;;;;;;-2.39;88.20;95229.78;5007323;28;20491;-60
2022/01/25 08:19:50;;;;;;;41.85;13.65;;;;;;;-2.18;87.43;95232.81;5010343;28;20044;-61
2022/01/25 08:22:33;;;;;;;40.60;14.05;;;;;;;-2.11;87.05;95237.78;4950969;28;20047;-59
2022/01/25 08:25:23;;;;;;;38.03;12.50;;;;;;;-1.76;86.28;95236.19;4929450;28;20254;-60
2022/01/25 08:28:00;;;;;;;37.20;12.82;;;;;;;-1.43;84.01;95231.38;4948538;28;20059;-60
2022/01/25 08:30:41;;;;;;;39.97;12.63;;;;;;;-1.41;84.19;95236.44;4929579;28;20052;-59
2022/01/25 08:33:24;;;;;;;33.63;12.35;;;;;;;-0.12;80.59;95234.63;4874069;29;20602;-62
2022/01/25 08:36:23;;;;;;;36.75;12.55;;;;;;;-0.30;79.28;95238.38;4836901;29;21335;-60
2022/01/25 08:39:07;;;;;;;36.90;12.27;;;;;;;-1.62;82.16;95244.22;4829237;29;20057;-59
2022/01/25 08:41:57;;;;;;;42.60;13.95;;;;;;;-1.02;82.02;95243.03;4819176;29;20133;-59
2022/01/25 08:44:36;;;;;;;42.55;14.52;;;;;;;0.16;77.07;95237.03;4818956;29;20062;-60
2022/01/25 08:47:09;;;;;;;52.60;15.68;;;;;;;-0.17;76.80;95233.97;4818938;29;20050;-60
2022/01/25 08:50:00;;;;;;;51.85;15.25;;;;;;;-0.85;78.96;95243.09;4815673;29;20493;-60
2022/01/25 08:52:47;;;;;;;42.53;13.77;;;;;;;-1.32;80.69;95242.69;4799219;29;20054;-58
2022/01/25 08:55:30;;;;;;;46.83;14.77;;;;;;;-0.96;81.28;95246.41;4836388;29;20459;-60
2022/01/25 08:58:11;;;;;;;51.25;15.68;;;;;;;-0.61;80.17;95248.13;4830585;29;20484;-60
2022/01/25 09:00:38;;;;;;;44.17;15.25;;;;;;;-0.10;77.85;95240.50;4837874;29;20175;-60
2022/01/25 09:03:05;;;;;;;36.45;13.68;;;;;;;0.00;76.15;95239.41;4837604;29;20050;-59
2022/01/25 09:05:33;;;;;;;38.67;13.90;;;;;;;0.17;75.69;95239.41;4953493;28;20050;-62
2022/01/25 09:08:01;;;;;;;42.15;14.27;;;;;;;0.29;74.77;95238.00;5011171;28;20054;-59
2022/01/25 09:10:28;;;;;;;35.35;13.85;;;;;;;0.47;75.52;95233.41;5029333;28;20448;-60
2022/01/25 09:12:55;;;;;;;43.08;14.70;;;;;;;1.29;72.88;95239.59;5031025;28;20072;-60
2022/01/25 09:15:22;;;;;;;40.72;14.27;;;;;;;0.87;72.98;95233.19;5031281;28;20045;-60
2022/01/25 09:17:49;;;;;;;39.73;14.10;;;;;;;1.18;71.48;95239.13;5030722;28;20037;-59
2022/01/25 09:20:16;;;;;;;35.08;13.15;;;;;;;1.55;70.85;95238.69;5062913;28;20457;-61
2022/01/25 09:22:43;;;;;;;41.22;14.95;;;;;;;2.62;67.02;95238.47;5029862;28;20045;-60
2022/01/25 09:25:27;;;;;;;40.38;14.65;;;;;;;3.64;63.79;95233.44;5030031;28;21563;-60
2022/01/25 09:27:54;;;;;;;36.38;14.65;;;;;;;3.72;61.80;95232.53;5030585;28;20409;-60
2022/01/25 09:30:21;;;;;;;49.13;16.23;;;;;;;4.52;59.78;95228.34;5030886;28;20570;-60
2022/01/25 09:32:47;;;;;;;46.85;16.23;;;;;;;4.78;58.62;95230.66;5030386;28;20723;-60
2022/01/25 09:35:15;;;;;;;34.40;14.27;;;;;;;4.99;57.21;95231.25;5046168;28;20042;-61
2022/01/25 09:37:41;;;;;;;30.67;13.43;;;;;;;4.50;58.90;95233.34;5030867;28;20048;-61
2022/01/25 09:40:10;;;;;;;35.65;14.98;;;;;;;4.69;59.04;95233.53;5030244;28;20037;-61
2022/01/25 09:42:38;;;;;;;41.53;15.83;;;;;;;6.26;54.67;95229.69;5030641;28;20033;-61
2022/01/25 09:45:06;;;;;;;32.58;14.52;;;;;;;7.42;51.45;95233.59;5030480;28;20107;-62
2022/01/25 09:47:33;;;;;;;36.80;15.85;;;;;;;7.55;51.07;95232.25;5030950;28;20185;-60
2022/01/25 09:50:00;;;;;;;34.35;15.77;;;;;;;7.98;49.18;95232.97;5030547;28;20114;-62
2022/01/25 09:52:27;;;;;;;39.88;17.98;;;;;;;7.94;48.88;95234.84;5030590;28;20049;-64
2022/01/25 09:54:58;;;;;;;43.17;19.20;;;;;;;9.02;46.73;95239.91;5030281;28;20120;-61
2022/01/25 09:57:25;;;;;;;28.25;14.60;;;;;;;8.87;46.88;95244.41;5030453;28;20038;-61
2022/01/25 09:59:52;;;;;;;27.60;14.57;;;;;;;9.64;43.91;95238.59;5029835;28;20053;-62
2022/01/25 10:02:43;;;;;;;29.67;15.25;;;;;;;10.23;43.10;95238.72;5030386;28;20407;-62
2022/01/25 10:05:31;;;;;;;31.60;16.15;;;;;;;10.76;41.55;95241.03;5030118;28;20079;-62
2022/01/25 10:08:08;;;;;;;29.10;15.80;;;;;;;10.48;41.32;95234.22;5000858;28;20043;-61
2022/01/25 10:10:42;;;;;;;27.38;14.73;;;;;;;10.09;42.99;95233.91;5028758;28;20083;-61
2022/01/25 10:13:17;;;;;;;25.90;14.88;;;;;;;9.66;43.91;95234.34;5061792;28;20041;-62
2022/01/25 10:15:45;;;;;;;28.58;15.57;;;;;;;9.09;44.72;95231.75;5030021;28;20410;-62
2022/01/25 10:18:19;;;;;;;25.23;14.15;;;;;;;9.42;43.38;95235.66;5029157;28;20604;-61
2022/01/25 10:20:49;;;;;;;25.80;14.07;;;;;;;9.22;44.26;95223.31;5030042;28;20414;-61
2022/01/25 10:23:24;;;;;;;28.48;14.85;;;;;;;8.83;45.41;95232.63;5029252;28;20582;-61
2022/01/25 10:25:52;;;;;;;27.88;14.18;;;;;;;8.27;46.69;95228.72;5029368;28;20114;-61
2022/01/25 10:28:29;;;;;;;26.88;14.50;;;;;;;9.05;44.69;95217.25;5030275;28;20401;-61
2022/01/25 10:31:03;;;;;;;26.75;13.95;;;;;;;9.05;44.44;95214.50;5029973;28;20057;-63
2022/01/25 10:33:39;;;;;;;25.90;14.13;;;;;;;8.11;47.17;95217.94;5029611;28;20041;-61
2022/01/25 10:36:26;;;;;;;26.55;14.13;;;;;;;9.07;45.34;95209.44;5028997;28;20368;-62
2022/01/25 10:38:55;;;;;;;25.05;13.48;;;;;;;10.42;42.58;95213.78;5029168;28;20045;-61
2022/01/25 10:41:24;;;;;;;24.35;13.45;;;;;;;10.89;40.38;95205.81;5029131;28;20053;-63
2022/01/25 10:43:53;;;;;;;26.58;14.15;;;;;;;11.20;40.20;95204.34;5029078;28;20049;-61
2022/01/25 10:46:29;;;;;;;22.33;12.80;;;;;;;11.17;40.00;95197.66;5028504;28;20060;-61
2022/01/25 10:49:08;;;;;;;26.63;13.80;;;;;;;11.01;40.69;95191.72;5029149;28;20593;-61
2022/01/25 10:51:45;;;;;;;25.65;13.65;;;;;;;10.67;40.95;95193.94;5029523;28;20045;-61
2022/01/25 10:54:13;;;;;;;24.40;13.27;;;;;;;10.70;40.98;95193.16;5029274;28;20045;-62
2022/01/25 10:56:41;;;;;;;23.75;12.73;;;;;;;10.62;41.29;95192.34;5029172;28;20045;-62
2022/01/25 10:59:20;;;;;;;23.57;13.03;;;;;;;10.90;41.83;95193.63;5029235;28;20041;-61
2022/01/25 11:02:02;;;;;;;25.15;13.02;;;;;;;11.31;40.50;95194.19;5029477;28;20041;-63
2022/01/25 11:04:34;;;;;;;24.75;13.75;;;;;;;11.30;39.92;95191.81;5028692;28;20444;-62
2022/01/25 11:07:09;;;;;;;23.27;12.73;;;;;;;12.67;37.87;95187.09;5012111;28;20428;-61
2022/01/25 11:09:42;;;;;;;21.55;12.80;;;;;;;11.38;38.76;95187.91;5020120;28;20045;-62
2022/01/25 11:12:15;;;;;;;23.67;12.87;;;;;;;12.46;37.70;95185.19;5028927;28;20498;-62
2022/01/25 11:14:57;;;;;;;24.00;13.60;;;;;;;12.02;37.63;95195.47;5028774;28;20037;-62
2022/01/25 11:17:28;;;;;;;24.25;14.13;;;;;;;12.90;36.89;95189.41;5028481;28;20590;-62
2022/01/25 11:19:56;;;;;;;22.88;13.23;;;;;;;13.34;36.68;95185.25;5028872;28;20522;-62
2022/01/25 11:22:24;;;;;;;22.20;13.70;;;;;;;13.59;35.19;95179.63;5029350;28;20034;-62
2022/01/25 11:24:55;;;;;;;30.43;21.03;;;;;;;12.36;38.21;95184.81;5028775;28;20346;-62
2022/01/25 11:27:25;;;;;;;21.05;13.00;;;;;;;13.27;36.67;95186.06;5029157;28;20053;-62
2022/01/25 11:29:57;;;;;;;25.50;13.70;;;;;;;12.42;37.06;95176.94;5028120;28;20052;-62
2022/01/25 11:32:28;;;;;;;20.05;12.27;;;;;;;11.78;38.54;95186.78;5029268;28;20053;-62
2022/01/25 11:34:55;;;;;;;20.13;11.85;;;;;;;13.12;36.80;95182.59;5028539;28;20067;-63
2022/01/25 11:37:38;;;;;;;19.27;11.47;;;;;;;11.58;39.03;95183.63;5028688;28;20037;-63
2022/01/25 11:40:30;;;;;;;22.42;12.48;;;;;;;11.95;38.56;95179.75;5028504;28;20495;-61
2022/01/25 11:43:05;;;;;;;21.88;11.82;;;;;;;9.85;42.75;95183.19;5027920;28;20050;-62
2022/01/25 11:45:38;;;;;;;19.58;11.25;;;;;;;11.28;40.02;95181.19;5028808;28;20045;-61
2022/01/25 11:48:06;;;;;;;19.05;11.63;;;;;;;11.26;39.64;95175.31;5028465;28;20054;-63
2022/01/25 11:50:36;;;;;;;19.83;11.33;;;;;;;11.19;40.23;95181.59;5028613;28;20033;-67
2022/01/25 11:53:11;;;;;;;20.23;11.55;;;;;;;11.92;39.03;95172.28;5043262;28;20056;-63
2022/01/25 11:55:41;;;;;;;21.17;11.90;;;;;;;12.29;37.77;95173.78;5027058;28;20046;-62
2022/01/25 11:58:15;;;;;;;18.00;10.80;;;;;;;11.44;39.36;95164.34;5027788;28;20048;-63
2022/01/25 12:00:51;;;;;;;18.92;11.27;;;;;;;11.32;40.21;95162.75;5028128;28;20044;-61
2022/01/25 12:03:27;;;;;;;18.87;11.17;;;;;;;10.97;41.08;95158.75;5027735;28;20505;-62
2022/01/25 12:06:04;;;;;;;19.65;10.98;;;;;;;10.22;41.85;95163.06;5027486;28;20114;-62
2022/01/25 12:08:51;;;;;;;19.63;11.30;;;;;;;9.50;44.62;95157.06;5026352;28;20111;-62
2022/01/25 12:11:32;;;;;;;20.85;11.93;;;;;;;10.14;43.64;95146.59;5008277;28;20671;-61
2022/01/25 12:14:22;;;;;;;24.45;13.70;;;;;;;9.86;43.92;95146.38;5008161;28;20042;-63
2022/01/25 12:17:04;;;;;;;25.10;13.13;;;;;;;10.23;42.78;95143.50;5008044;28;20056;-62
2022/01/25 12:19:37;;;;;;;76.00;35.42;;;;;;;8.66;46.58;95143.69;5008804;28;20048;-62
2022/01/25 12:22:07;;;;;;;90.80;41.00;;;;;;;7.79;49.09;95141.72;5008298;28;20491;-62
2022/01/25 12:24:47;;;;;;;29.15;14.40;;;;;;;6.74;51.05;95143.03;5009099;28;20049;-63
2022/01/25 12:29:57;;;;;;;41.00;19.67;;;;;;;4.66;58.58;95144.47;5008288;28;20038;-61
2022/01/25 12:32:26;;;;;;;41.53;20.70;;;;;;;4.05;61.73;95136.56;5039361;28;20907;-60
2022/01/25 12:35:01;;;;;;;45.67;22.65;;;;;;;3.97;62.27;95130.91;5008042;28;20049;-60
2022/01/25 12:37:43;;;;;;;37.42;18.88;;;;;;;3.64;63.41;95127.56;5006699;28;20044;-61
2022/01/25 12:40:26;;;;;;;31.40;14.15;;;;;;;3.83;63.79;95127.75;5008166;28;20498;-61
2022/01/25 12:42:57;;;;;;;26.07;12.43;;;;;;;3.56;64.09;95115.69;5007886;28;20038;-61
2022/01/25 12:45:28;;;;;;;36.58;18.40;;;;;;;3.49;65.64;95131.78;5008441;28;20052;-60
2022/01/25 12:48:00;;;;;;;26.20;11.85;;;;;;;3.46;65.28;95130.53;5007815;28;20460;-60
2022/01/25 12:50:29;;;;;;;34.22;17.10;;;;;;;3.43;65.66;95125.78;5008462;28;20045;-61
2022/01/25 12:52:59;;;;;;;32.00;17.17;;;;;;;3.41;66.77;95122.59;5007310;28;20778;-61
2022/01/25 12:55:31;;;;;;;25.83;12.23;;;;;;;3.18;67.00;95119.56;5008456;28;20054;-61
2022/01/25 12:57:58;;;;;;;40.08;20.85;;;;;;;2.93;68.21;95113.31;5007884;28;20052;-60
2022/01/25 13:00:31;;;;;;;44.95;25.10;;;;;;;3.21;68.13;95105.31;5008665;28;20042;-60
2022/01/25 13:03:22;;;;;;;25.58;12.23;;;;;;;3.11;68.22;95109.25;5007434;28;20050;-60
2022/01/25 13:05:59;;;;;;;23.23;10.48;;;;;;;3.23;69.29;95103.06;5009762;28;20045;-60
2022/01/25 13:08:31;;;;;;;25.93;11.60;;;;;;;3.00;69.20;95108.13;5013210;28;20083;-60
2022/01/25 13:11:26;;;;;;;26.90;11.48;;;;;;;2.89;69.47;95099.63;5030876;28;20501;-60
2022/01/25 13:16:44;;;;;;;24.15;11.32;;;;;;;3.32;68.13;95102.94;5031514;28;20063;-60
2022/01/25 13:19:20;;;;;;;24.05;10.35;;;;;;;2.92;70.10;95107.09;5030796;28;20609;-61
2022/01/25 13:21:55;;;;;;;30.53;16.27;;;;;;;3.23;69.15;95107.69;5031079;28;20053;-60
2022/01/25 13:25:13;;;;;;;25.17;11.18;;;;;;;2.86;70.64;95105.75;5029437;28;20526;-60
2022/01/25 13:27:35;;;;;;;26.02;10.60;;;;;;;3.17;69.98;95105.19;5030319;28;20638;-61
2022/01/25 13:32:51;;;;;;;24.23;10.52;;;;;;;3.37;69.09;95110.84;5030860;28;20042;-61
2022/01/25 13:38:21;;;;;;;23.80;10.18;;;;;;;3.56;68.38;95100.22;5003083;28;20492;-59